sensor_id;sensor_type;location;lat;lon;timestamp;pressure;altitude;pressure_sealevel;temperature;humidity
20368;BME280;10343;52.402;9.796;2023-02-01T00:00:38;100927.97;;;7.73;82.07
20368;BME280;10343;52.402;9.796;2023-02-01T00:03:06;100923.75;;;7.44;83.74
20368;BME280;10343;52.402;9.796;2023-02-01T00:05:34;100919.97;;;7.79;83.32
20368;BME280;10343;52.402;9.796;2023-02-01T00:08:03;100919.22;;;7.64;82.58
20368;BME280;10343;52.402;9.796;2023-02-01T00:10:30;100913.03;;;7.65;82.50
20368;BME280;10343;52.402;9.796;2023-02-01T00:12:58;100914.75;;;7.70;82.86
20368;BME280;10343;52.402;9.796;2023-02-01T00:15:27;100919.38;;;7.40;83.40
20368;BME280;10343;52.402;9.796;2023-02-01T00:17:55;100918.34;;;7.62;83.61
20368;BME280;10343;52.402;9.796;2023-02-01T00:20:23;100912.94;;;7.81;82.17
20368;BME280;10343;52.402;9.796;2023-02-01T00:22:50;100902.56;;;7.56;82.25
20368;BME280;10343;52.402;9.796;2023-02-01T00:25:18;100901.53;;;7.71;83.61
20368;BME280;10343;52.402;9.796;2023-02-01T00:27:48;100897.38;;;7.41;83.27
20368;BME280;10343;52.402;9.796;2023-02-01T00:30:17;100906.28;;;7.21;84.51
20368;BME280;10343;52.402;9.796;2023-02-01T00:32:47;100893.00;;;7.37;84.05
20368;BME280;10343;52.402;9.796;2023-02-01T00:35:15;100897.91;;;7.91;81.27
20368;BME280;10343;52.402;9.796;2023-02-01T00:37:43;100904.94;;;7.89;81.60
20368;BME280;10343;52.402;9.796;2023-02-01T00:40:11;100904.44;;;7.39;84.14
20368;BME280;10343;52.402;9.796;2023-02-01T00:42:39;100906.63;;;7.96;83.73
20368;BME280;10343;52.402;9.796;2023-02-01T00:45:08;100900.75;;;7.64;82.40
20368;BME280;10343;52.402;9.796;2023-02-01T00:47:35;100904.06;;;7.90;82.36
20368;BME280;10343;52.402;9.796;2023-02-01T00:50:05;100890.25;;;7.57;83.19
20368;BME280;10343;52.402;9.796;2023-02-01T00:52:33;100884.19;;;7.44;84.43
20368;BME280;10343;52.402;9.796;2023-02-01T00:55:01;100890.19;;;7.64;83.21
20368;BME280;10343;52.402;9.796;2023-02-01T00:57:29;100886.59;;;7.73;81.61
20368;BME280;10343;52.402;9.796;2023-02-01T00:59:56;100889.38;;;7.52;81.95
20368;BME280;10343;52.402;9.796;2023-02-01T01:02:25;100873.56;;;7.52;83.32
20368;BME280;10343;52.402;9.796;2023-02-01T01:04:53;100875.13;;;7.76;81.60
20368;BME280;10343;52.402;9.796;2023-02-01T01:07:22;100880.41;;;7.77;82.53
20368;BME280;10343;52.402;9.796;2023-02-01T01:09:50;100879.00;;;7.28;83.97
20368;BME280;10343;52.402;9.796;2023-02-01T01:12:18;100885.13;;;7.34;83.53
20368;BME280;10343;52.402;9.796;2023-02-01T01:14:46;100883.09;;;7.70;82.99
20368;BME280;10343;52.402;9.796;2023-02-01T01:17:14;100887.72;;;7.38;83.48
20368;BME280;10343;52.402;9.796;2023-02-01T01:19:42;100885.91;;;7.46;82.28
20368;BME280;10343;52.402;9.796;2023-02-01T01:22:10;100881.81;;;8.15;81.09
20368;BME280;10343;52.402;9.796;2023-02-01T01:24:39;100882.34;;;7.55;82.49
20368;BME280;10343;52.402;9.796;2023-02-01T01:27:07;100877.81;;;7.70;81.51
20368;BME280;10343;52.402;9.796;2023-02-01T01:29:36;100878.06;;;7.39;82.05
20368;BME280;10343;52.402;9.796;2023-02-01T01:32:04;100878.63;;;7.78;82.01
20368;BME280;10343;52.402;9.796;2023-02-01T01:34:31;100864.44;;;7.91;80.28
20368;BME280;10343;52.402;9.796;2023-02-01T01:36:59;100856.81;;;7.60;81.33
20368;BME280;10343;52.402;9.796;2023-02-01T01:39:27;100874.81;;;8.11;77.90
20368;BME280;10343;52.402;9.796;2023-02-01T01:41:56;100867.03;;;7.94;79.18
20368;BME280;10343;52.402;9.796;2023-02-01T01:44:59;100873.44;;;7.70;80.79
20368;BME280;10343;52.402;9.796;2023-02-01T01:47:31;100857.97;;;8.22;79.12
20368;BME280;10343;52.402;9.796;2023-02-01T01:50:01;100859.34;;;7.70;79.90
20368;BME280;10343;52.402;9.796;2023-02-01T01:52:30;100860.13;;;7.84;80.90
20368;BME280;10343;52.402;9.796;2023-02-01T01:54:58;100858.47;;;7.71;79.29
20368;BME280;10343;52.402;9.796;2023-02-01T01:57:31;100848.69;;;7.82;80.17
20368;BME280;10343;52.402;9.796;2023-02-01T02:00:03;100849.81;;;7.52;81.34
20368;BME280;10343;52.402;9.796;2023-02-01T02:02:41;100855.88;;;7.64;81.35
20368;BME280;10343;52.402;9.796;2023-02-01T02:05:14;100839.34;;;7.44;81.96
20368;BME280;10343;52.402;9.796;2023-02-01T02:07:46;100839.44;;;7.28;83.37
20368;BME280;10343;52.402;9.796;2023-02-01T02:10:15;100836.69;;;7.42;81.68
20368;BME280;10343;52.402;9.796;2023-02-01T02:12:47;100832.25;;;7.52;82.57
20368;BME280;10343;52.402;9.796;2023-02-01T02:15:16;100832.25;;;7.49;82.22
20368;BME280;10343;52.402;9.796;2023-02-01T02:17:50;100841.72;;;7.73;80.62
20368;BME280;10343;52.402;9.796;2023-02-01T02:20:45;100848.16;;;7.40;81.67
20368;BME280;10343;52.402;9.796;2023-02-01T02:23:47;100834.00;;;7.50;80.67
20368;BME280;10343;52.402;9.796;2023-02-01T02:26:49;100822.41;;;7.68;79.78
20368;BME280;10343;52.402;9.796;2023-02-01T02:32:53;100812.69;;;7.75;78.72
20368;BME280;10343;52.402;9.796;2023-02-01T02:35:30;100803.56;;;8.07;77.36
20368;BME280;10343;52.402;9.796;2023-02-01T02:38:10;100804.63;;;7.89;77.78
20368;BME280;10343;52.402;9.796;2023-02-01T02:40:46;100807.25;;;7.90;77.22
20368;BME280;10343;52.402;9.796;2023-02-01T02:43:21;100797.47;;;8.00;77.43
20368;BME280;10343;52.402;9.796;2023-02-01T02:46:14;100794.88;;;7.95;77.66
20368;BME280;10343;52.402;9.796;2023-02-01T02:49:16;100786.38;;;7.69;78.35
20368;BME280;10343;52.402;9.796;2023-02-01T02:51:50;100786.16;;;7.87;77.75
20368;BME280;10343;52.402;9.796;2023-02-01T02:54:40;100784.00;;;8.23;76.80
20368;BME280;10343;52.402;9.796;2023-02-01T02:57:18;100775.47;;;7.99;76.05
20368;BME280;10343;52.402;9.796;2023-02-01T03:00:07;100777.25;;;7.97;77.12
20368;BME280;10343;52.402;9.796;2023-02-01T03:02:54;100782.28;;;8.19;75.81
20368;BME280;10343;52.402;9.796;2023-02-01T03:05:42;100772.22;;;7.76;76.68
20368;BME280;10343;52.402;9.796;2023-02-01T03:08:14;100764.63;;;8.24;75.88
20368;BME280;10343;52.402;9.796;2023-02-01T03:10:53;100763.59;;;7.55;79.02
20368;BME280;10343;52.402;9.796;2023-02-01T03:13:33;100777.44;;;7.79;78.26
20368;BME280;10343;52.402;9.796;2023-02-01T03:16:06;100762.63;;;7.69;78.15
20368;BME280;10343;52.402;9.796;2023-02-01T03:18:45;100761.69;;;7.71;78.70
20368;BME280;10343;52.402;9.796;2023-02-01T03:21:18;100757.00;;;7.98;77.97
20368;BME280;10343;52.402;9.796;2023-02-01T03:23:50;100766.16;;;7.63;78.67
20368;BME280;10343;52.402;9.796;2023-02-01T03:26:22;100752.97;;;7.61;78.30
20368;BME280;10343;52.402;9.796;2023-02-01T03:28:55;100751.72;;;7.99;76.42
20368;BME280;10343;52.402;9.796;2023-02-01T03:31:25;100745.41;;;8.13;76.90
20368;BME280;10343;52.402;9.796;2023-02-01T03:33:53;100749.13;;;7.93;77.39
20368;BME280;10343;52.402;9.796;2023-02-01T03:36:26;100739.97;;;8.25;77.56
20368;BME280;10343;52.402;9.796;2023-02-01T03:39:02;100740.44;;;7.85;78.09
20368;BME280;10343;52.402;9.796;2023-02-01T03:41:35;100738.09;;;8.33;75.64
20368;BME280;10343;52.402;9.796;2023-02-01T03:44:11;100721.03;;;7.89;77.30
20368;BME280;10343;52.402;9.796;2023-02-01T03:46:45;100707.97;;;7.78;79.92
20368;BME280;10343;52.402;9.796;2023-02-01T03:49:19;100721.44;;;8.28;77.51
20368;BME280;10343;52.402;9.796;2023-02-01T03:51:50;100705.94;;;8.01;78.67
20368;BME280;10343;52.402;9.796;2023-02-01T03:54:20;100706.41;;;8.30;79.33
20368;BME280;10343;52.402;9.796;2023-02-01T03:56:50;100689.00;;;8.19;79.09
20368;BME280;10343;52.402;9.796;2023-02-01T03:59:18;100704.22;;;7.96;78.25
20368;BME280;10343;52.402;9.796;2023-02-01T04:01:46;100693.53;;;8.06;78.63
20368;BME280;10343;52.402;9.796;2023-02-01T04:04:14;100687.84;;;7.67;80.00
20368;BME280;10343;52.402;9.796;2023-02-01T04:06:50;100685.72;;;7.99;79.19
20368;BME280;10343;52.402;9.796;2023-02-01T04:09:20;100683.44;;;7.67;79.93
20368;BME280;10343;52.402;9.796;2023-02-01T04:11:47;100686.72;;;7.89;79.47
20368;BME280;10343;52.402;9.796;2023-02-01T04:14:15;100682.75;;;7.51;80.79
20368;BME280;10343;52.402;9.796;2023-02-01T04:16:43;100693.56;;;8.03;79.50
20368;BME280;10343;52.402;9.796;2023-02-01T04:19:11;100679.00;;;8.41;77.67
20368;BME280;10343;52.402;9.796;2023-02-01T04:21:39;100694.56;;;7.95;79.25
20368;BME280;10343;52.402;9.796;2023-02-01T04:24:07;100684.00;;;7.95;79.69
20368;BME280;10343;52.402;9.796;2023-02-01T04:26:36;100687.72;;;7.79;79.91
20368;BME280;10343;52.402;9.796;2023-02-01T04:29:04;100686.78;;;8.53;79.03
20368;BME280;10343;52.402;9.796;2023-02-01T04:31:32;100677.09;;;7.82;81.05
20368;BME280;10343;52.402;9.796;2023-02-01T04:34:02;100666.34;;;8.01;78.42
20368;BME280;10343;52.402;9.796;2023-02-01T04:36:30;100669.59;;;8.21;78.89
20368;BME280;10343;52.402;9.796;2023-02-01T04:38:57;100676.38;;;8.98;74.84
20368;BME280;10343;52.402;9.796;2023-02-01T04:41:25;100653.75;;;8.21;76.74
20368;BME280;10343;52.402;9.796;2023-02-01T04:43:54;100650.97;;;8.29;77.15
20368;BME280;10343;52.402;9.796;2023-02-01T04:46:22;100661.09;;;8.63;74.42
20368;BME280;10343;52.402;9.796;2023-02-01T04:48:50;100662.13;;;8.51;75.82
20368;BME280;10343;52.402;9.796;2023-02-01T04:51:17;100648.84;;;8.57;76.81
20368;BME280;10343;52.402;9.796;2023-02-01T04:53:45;100651.28;;;8.09;79.35
20368;BME280;10343;52.402;9.796;2023-02-01T04:56:13;100645.63;;;7.67;87.77
20368;BME280;10343;52.402;9.796;2023-02-01T04:58:41;100625.69;;;7.41;93.53
20368;BME280;10343;52.402;9.796;2023-02-01T05:01:10;100632.94;;;7.19;97.42
20368;BME280;10343;52.402;9.796;2023-02-01T05:03:37;100616.09;;;7.34;100.00
20368;BME280;10343;52.402;9.796;2023-02-01T05:06:05;100608.94;;;7.45;100.00
20368;BME280;10343;52.402;9.796;2023-02-01T05:08:33;100605.88;;;7.04;100.00
20368;BME280;10343;52.402;9.796;2023-02-01T05:11:04;100601.94;;;7.44;100.00
20368;BME280;10343;52.402;9.796;2023-02-01T05:13:34;100594.44;;;7.02;100.00
20368;BME280;10343;52.402;9.796;2023-02-01T05:16:17;100598.22;;;7.60;100.00
20368;BME280;10343;52.402;9.796;2023-02-01T05:18:45;100595.09;;;7.23;100.00
20368;BME280;10343;52.402;9.796;2023-02-01T05:21:13;100583.09;;;6.97;100.00
20368;BME280;10343;52.402;9.796;2023-02-01T05:23:41;100583.03;;;7.03;100.00
20368;BME280;10343;52.402;9.796;2023-02-01T05:26:22;100595.53;;;7.63;100.00
20368;BME280;10343;52.402;9.796;2023-02-01T05:28:53;100587.94;;;7.37;100.00
20368;BME280;10343;52.402;9.796;2023-02-01T05:31:22;100584.16;;;7.58;100.00
20368;BME280;10343;52.402;9.796;2023-02-01T05:33:50;100588.09;;;7.23;100.00
20368;BME280;10343;52.402;9.796;2023-02-01T05:36:18;100577.81;;;6.97;100.00
20368;BME280;10343;52.402;9.796;2023-02-01T05:38:45;100585.31;;;7.34;100.00
20368;BME280;10343;52.402;9.796;2023-02-01T05:41:13;100577.84;;;6.92;100.00
20368;BME280;10343;52.402;9.796;2023-02-01T05:43:41;100580.06;;;7.32;100.00
20368;BME280;10343;52.402;9.796;2023-02-01T05:46:09;100569.38;;;7.45;100.00
20368;BME280;10343;52.402;9.796;2023-02-01T05:48:41;100574.88;;;7.93;100.00
20368;BME280;10343;52.402;9.796;2023-02-01T05:51:10;100573.53;;;7.64;100.00
20368;BME280;10343;52.402;9.796;2023-02-01T05:53:38;100575.69;;;7.33;100.00
20368;BME280;10343;52.402;9.796;2023-02-01T05:56:06;100572.00;;;7.45;100.00
20368;BME280;10343;52.402;9.796;2023-02-01T05:58:34;100566.06;;;7.27;100.00
20368;BME280;10343;52.402;9.796;2023-02-01T06:01:02;100564.22;;;7.32;100.00
20368;BME280;10343;52.402;9.796;2023-02-01T06:03:30;100555.59;;;7.20;100.00
20368;BME280;10343;52.402;9.796;2023-02-01T06:06:00;100556.88;;;7.61;100.00
20368;BME280;10343;52.402;9.796;2023-02-01T06:08:28;100564.06;;;7.46;100.00
20368;BME280;10343;52.402;9.796;2023-02-01T06:10:59;100549.88;;;7.57;100.00
20368;BME280;10343;52.402;9.796;2023-02-01T06:13:27;100553.03;;;7.85;100.00
20368;BME280;10343;52.402;9.796;2023-02-01T06:15:55;100560.38;;;7.60;100.00
20368;BME280;10343;52.402;9.796;2023-02-01T06:18:24;100548.97;;;7.59;100.00
20368;BME280;10343;52.402;9.796;2023-02-01T06:20:53;100548.00;;;7.67;100.00
20368;BME280;10343;52.402;9.796;2023-02-01T06:23:22;100552.38;;;7.68;100.00
20368;BME280;10343;52.402;9.796;2023-02-01T06:25:51;100555.53;;;7.94;98.82
20368;BME280;10343;52.402;9.796;2023-02-01T06:28:19;100562.78;;;7.80;95.72
20368;BME280;10343;52.402;9.796;2023-02-01T06:30:47;100555.81;;;7.74;98.71
20368;BME280;10343;52.402;9.796;2023-02-01T06:33:15;100555.41;;;8.04;100.00
20368;BME280;10343;52.402;9.796;2023-02-01T06:35:43;100564.97;;;7.47;100.00
20368;BME280;10343;52.402;9.796;2023-02-01T06:38:11;100563.75;;;7.74;100.00
20368;BME280;10343;52.402;9.796;2023-02-01T06:40:40;100560.47;;;7.54;100.00
20368;BME280;10343;52.402;9.796;2023-02-01T06:43:08;100570.34;;;7.38;100.00
20368;BME280;10343;52.402;9.796;2023-02-01T06:45:36;100559.56;;;7.56;100.00
20368;BME280;10343;52.402;9.796;2023-02-01T06:48:07;100581.09;;;7.19;100.00
20368;BME280;10343;52.402;9.796;2023-02-01T06:50:35;100550.41;;;7.10;100.00
20368;BME280;10343;52.402;9.796;2023-02-01T06:53:02;100552.59;;;7.49;100.00
20368;BME280;10343;52.402;9.796;2023-02-01T06:55:30;100564.38;;;7.22;100.00
20368;BME280;10343;52.402;9.796;2023-02-01T06:57:59;100560.34;;;7.63;100.00
20368;BME280;10343;52.402;9.796;2023-02-01T07:00:28;100566.91;;;7.29;100.00
20368;BME280;10343;52.402;9.796;2023-02-01T07:02:57;100574.81;;;7.31;100.00
20368;BME280;10343;52.402;9.796;2023-02-01T07:05:25;100572.00;;;7.48;100.00
20368;BME280;10343;52.402;9.796;2023-02-01T07:07:53;100588.22;;;7.08;100.00
20368;BME280;10343;52.402;9.796;2023-02-01T07:10:21;100575.84;;;7.88;100.00
20368;BME280;10343;52.402;9.796;2023-02-01T07:12:50;100583.94;;;7.77;100.00
20368;BME280;10343;52.402;9.796;2023-02-01T07:15:19;100581.09;;;7.21;100.00
20368;BME280;10343;52.402;9.796;2023-02-01T07:17:50;100604.53;;;8.14;100.00
20368;BME280;10343;52.402;9.796;2023-02-01T07:20:18;100594.28;;;7.92;100.00
20368;BME280;10343;52.402;9.796;2023-02-01T07:22:46;100594.81;;;8.16;100.00
20368;BME280;10343;52.402;9.796;2023-02-01T07:25:15;100604.69;;;8.05;100.00
20368;BME280;10343;52.402;9.796;2023-02-01T07:27:43;100598.03;;;7.76;100.00
20368;BME280;10343;52.402;9.796;2023-02-01T07:30:11;100601.47;;;7.82;100.00
20368;BME280;10343;52.402;9.796;2023-02-01T07:32:41;100594.75;;;8.21;98.47
20368;BME280;10343;52.402;9.796;2023-02-01T07:35:08;100614.78;;;8.36;97.77
20368;BME280;10343;52.402;9.796;2023-02-01T07:37:36;100605.63;;;7.99;97.63
20368;BME280;10343;52.402;9.796;2023-02-01T07:40:05;100603.41;;;8.30;97.54
20368;BME280;10343;52.402;9.796;2023-02-01T07:42:33;100604.66;;;8.06;96.16
20368;BME280;10343;52.402;9.796;2023-02-01T07:45:02;100609.69;;;8.23;95.75
20368;BME280;10343;52.402;9.796;2023-02-01T07:47:48;100616.97;;;8.06;97.55
20368;BME280;10343;52.402;9.796;2023-02-01T07:50:16;100628.88;;;8.34;93.73
20368;BME280;10343;52.402;9.796;2023-02-01T07:52:44;100606.34;;;8.12;96.38
20368;BME280;10343;52.402;9.796;2023-02-01T07:55:11;100604.69;;;8.03;93.83
20368;BME280;10343;52.402;9.796;2023-02-01T07:57:39;100603.66;;;8.13;95.31
20368;BME280;10343;52.402;9.796;2023-02-01T08:00:09;100599.88;;;8.31;93.50
20368;BME280;10343;52.402;9.796;2023-02-01T08:02:57;100608.28;;;7.97;94.03
20368;BME280;10343;52.402;9.796;2023-02-01T08:05:25;100617.72;;;8.17;92.66
20368;BME280;10343;52.402;9.796;2023-02-01T08:07:53;100612.88;;;7.83;95.44
20368;BME280;10343;52.402;9.796;2023-02-01T08:10:21;100639.41;;;8.38;91.45
20368;BME280;10343;52.402;9.796;2023-02-01T08:12:49;100619.75;;;7.93;93.67
20368;BME280;10343;52.402;9.796;2023-02-01T08:15:18;100620.59;;;7.98;95.20
20368;BME280;10343;52.402;9.796;2023-02-01T08:17:47;100639.50;;;8.89;88.66
20368;BME280;10343;52.402;9.796;2023-02-01T08:20:17;100642.84;;;8.46;88.96
20368;BME280;10343;52.402;9.796;2023-02-01T08:22:45;100650.13;;;8.28;89.69
20368;BME280;10343;52.402;9.796;2023-02-01T08:25:13;100653.31;;;8.52;88.28
20368;BME280;10343;52.402;9.796;2023-02-01T08:27:41;100652.97;;;8.13;88.60
20368;BME280;10343;52.402;9.796;2023-02-01T08:30:10;100666.97;;;8.82;85.87
20368;BME280;10343;52.402;9.796;2023-02-01T08:32:38;100669.13;;;9.10;83.80
20368;BME280;10343;52.402;9.796;2023-02-01T08:35:06;100676.25;;;9.05;85.58
20368;BME280;10343;52.402;9.796;2023-02-01T08:37:35;100676.53;;;8.28;84.39
20368;BME280;10343;52.402;9.796;2023-02-01T08:40:05;100668.78;;;8.77;85.33
20368;BME280;10343;52.402;9.796;2023-02-01T08:42:33;100664.19;;;8.88;84.85
20368;BME280;10343;52.402;9.796;2023-02-01T08:45:20;100673.91;;;8.88;83.82
20368;BME280;10343;52.402;9.796;2023-02-01T08:47:50;100664.88;;;9.01;83.23
20368;BME280;10343;52.402;9.796;2023-02-01T08:50:19;100673.59;;;9.08;83.13
20368;BME280;10343;52.402;9.796;2023-02-01T08:52:49;100653.03;;;8.71;82.78
20368;BME280;10343;52.402;9.796;2023-02-01T08:55:18;100655.16;;;8.44;83.15
20368;BME280;10343;52.402;9.796;2023-02-01T08:57:46;100662.22;;;9.03;84.16
20368;BME280;10343;52.402;9.796;2023-02-01T09:00:16;100655.50;;;8.19;85.46
20368;BME280;10343;52.402;9.796;2023-02-01T09:02:44;100678.91;;;9.05;82.66
20368;BME280;10343;52.402;9.796;2023-02-01T09:05:13;100681.44;;;8.56;84.05
20368;BME280;10343;52.402;9.796;2023-02-01T09:07:43;100680.03;;;8.91;82.24
20368;BME280;10343;52.402;9.796;2023-02-01T09:10:12;100665.88;;;8.94;80.76
20368;BME280;10343;52.402;9.796;2023-02-01T09:12:44;100680.44;;;9.66;77.95
20368;BME280;10343;52.402;9.796;2023-02-01T09:15:12;100677.47;;;9.82;74.14
20368;BME280;10343;52.402;9.796;2023-02-01T09:17:40;100679.81;;;9.99;75.23
20368;BME280;10343;52.402;9.796;2023-02-01T09:20:10;100676.88;;;9.69;74.13
20368;BME280;10343;52.402;9.796;2023-02-01T09:22:38;100687.75;;;9.54;74.96
20368;BME280;10343;52.402;9.796;2023-02-01T09:25:07;100692.50;;;9.34;74.40
20368;BME280;10343;52.402;9.796;2023-02-01T09:27:37;100680.91;;;9.42;75.39
20368;BME280;10343;52.402;9.796;2023-02-01T09:30:06;100684.94;;;9.13;77.24
20368;BME280;10343;52.402;9.796;2023-02-01T09:32:35;100674.25;;;9.21;75.59
20368;BME280;10343;52.402;9.796;2023-02-01T09:35:04;100686.25;;;9.39;76.65
20368;BME280;10343;52.402;9.796;2023-02-01T09:37:32;100675.44;;;9.03;75.71
20368;BME280;10343;52.402;9.796;2023-02-01T09:40:00;100676.63;;;9.81;74.54
20368;BME280;10343;52.402;9.796;2023-02-01T09:42:46;100682.66;;;9.88;73.97
20368;BME280;10343;52.402;9.796;2023-02-01T09:45:21;100693.56;;;9.73;73.90
20368;BME280;10343;52.402;9.796;2023-02-01T09:47:54;100698.63;;;9.85;73.80
20368;BME280;10343;52.402;9.796;2023-02-01T09:50:29;100701.09;;;9.47;75.69
20368;BME280;10343;52.402;9.796;2023-02-01T09:53:01;100686.66;;;9.15;74.98
20368;BME280;10343;52.402;9.796;2023-02-01T09:55:35;100693.28;;;8.88;76.98
20368;BME280;10343;52.402;9.796;2023-02-01T09:58:09;100692.44;;;9.84;74.33
20368;BME280;10343;52.402;9.796;2023-02-01T10:00:46;100700.19;;;9.95;73.27
20368;BME280;10343;52.402;9.796;2023-02-01T10:03:18;100702.75;;;9.98;71.81
20368;BME280;10343;52.402;9.796;2023-02-01T10:06:05;100706.94;;;9.65;73.33
20368;BME280;10343;52.402;9.796;2023-02-01T10:08:46;100709.53;;;9.20;74.85
20368;BME280;10343;52.402;9.796;2023-02-01T10:11:24;100694.41;;;10.18;73.61
20368;BME280;10343;52.402;9.796;2023-02-01T10:14:01;100691.47;;;9.43;73.33
20368;BME280;10343;52.402;9.796;2023-02-01T10:16:38;100693.56;;;9.73;73.24
20368;BME280;10343;52.402;9.796;2023-02-01T10:19:24;100697.50;;;9.97;72.27
20368;BME280;10343;52.402;9.796;2023-02-01T10:21:59;100698.25;;;10.46;71.53
20368;BME280;10343;52.402;9.796;2023-02-01T10:24:36;100696.72;;;10.34;70.71
20368;BME280;10343;52.402;9.796;2023-02-01T10:27:13;100689.47;;;10.00;71.65
20368;BME280;10343;52.402;9.796;2023-02-01T10:29:45;100678.81;;;9.59;72.04
20368;BME280;10343;52.402;9.796;2023-02-01T10:32:17;100677.22;;;9.94;69.49
20368;BME280;10343;52.402;9.796;2023-02-01T10:34:49;100677.59;;;9.30;73.91
20368;BME280;10343;52.402;9.796;2023-02-01T10:37:26;100683.66;;;9.82;70.29
20368;BME280;10343;52.402;9.796;2023-02-01T10:39:56;100664.25;;;10.24;68.47
20368;BME280;10343;52.402;9.796;2023-02-01T10:42:27;100676.53;;;10.28;67.44
20368;BME280;10343;52.402;9.796;2023-02-01T10:44:59;100672.66;;;10.45;67.78
20368;BME280;10343;52.402;9.796;2023-02-01T10:47:28;100683.84;;;10.17;66.74
20368;BME280;10343;52.402;9.796;2023-02-01T10:50:02;100673.94;;;10.25;66.62
20368;BME280;10343;52.402;9.796;2023-02-01T10:52:39;100670.75;;;9.17;69.69
20368;BME280;10343;52.402;9.796;2023-02-01T10:55:32;100662.09;;;9.57;68.46
20368;BME280;10343;52.402;9.796;2023-02-01T10:58:03;100676.41;;;9.92;68.43
20368;BME280;10343;52.402;9.796;2023-02-01T11:00:41;100667.47;;;9.98;67.31
20368;BME280;10343;52.402;9.796;2023-02-01T11:06:11;100660.16;;;9.65;68.34
20368;BME280;10343;52.402;9.796;2023-02-01T11:08:46;100651.69;;;9.48;68.36
20368;BME280;10343;52.402;9.796;2023-02-01T11:11:15;100643.06;;;9.37;68.05
20368;BME280;10343;52.402;9.796;2023-02-01T11:13:52;100644.47;;;9.56;69.58
20368;BME280;10343;52.402;9.796;2023-02-01T11:16:22;100641.09;;;10.32;65.78
20368;BME280;10343;52.402;9.796;2023-02-01T11:18:58;100643.09;;;9.80;67.48
20368;BME280;10343;52.402;9.796;2023-02-01T11:21:26;100640.72;;;9.66;69.08
20368;BME280;10343;52.402;9.796;2023-02-01T11:23:55;100624.59;;;9.79;68.28
20368;BME280;10343;52.402;9.796;2023-02-01T11:26:27;100622.47;;;9.96;67.36
20368;BME280;10343;52.402;9.796;2023-02-01T11:28:59;100616.34;;;9.52;68.34
20368;BME280;10343;52.402;9.796;2023-02-01T11:31:33;100625.03;;;9.57;67.40
20368;BME280;10343;52.402;9.796;2023-02-01T11:34:06;100601.75;;;9.75;67.49
20368;BME280;10343;52.402;9.796;2023-02-01T11:36:36;100609.88;;;10.08;66.30
20368;BME280;10343;52.402;9.796;2023-02-01T11:39:20;100612.47;;;9.68;66.29
20368;BME280;10343;52.402;9.796;2023-02-01T11:42:03;100589.38;;;10.53;64.50
20368;BME280;10343;52.402;9.796;2023-02-01T11:44:34;100593.84;;;9.73;66.40
20368;BME280;10343;52.402;9.796;2023-02-01T11:47:22;100575.38;;;10.09;66.40
20368;BME280;10343;52.402;9.796;2023-02-01T11:49:52;100561.16;;;10.87;64.66
20368;BME280;10343;52.402;9.796;2023-02-01T11:55:38;100556.63;;;10.18;64.82
20368;BME280;10343;52.402;9.796;2023-02-01T11:58:21;100551.88;;;10.70;64.29
20368;BME280;10343;52.402;9.796;2023-02-01T12:01:06;100540.00;;;10.51;63.38
20368;BME280;10343;52.402;9.796;2023-02-01T12:04:04;100512.53;;;10.16;64.41
20368;BME280;10343;52.402;9.796;2023-02-01T12:06:47;100519.97;;;10.74;63.24
20368;BME280;10343;52.402;9.796;2023-02-01T12:09:30;100496.72;;;10.83;61.92
20368;BME280;10343;52.402;9.796;2023-02-01T12:12:06;100510.31;;;10.36;63.19
20368;BME280;10343;52.402;9.796;2023-02-01T12:15:00;100498.22;;;10.23;63.43
20368;BME280;10343;52.402;9.796;2023-02-01T12:17:43;100493.94;;;10.17;65.29
20368;BME280;10343;52.402;9.796;2023-02-01T12:20:23;100493.59;;;9.95;65.25
20368;BME280;10343;52.402;9.796;2023-02-01T12:23:06;100479.63;;;10.25;65.55
20368;BME280;10343;52.402;9.796;2023-02-01T12:25:46;100463.41;;;10.02;66.11
20368;BME280;10343;52.402;9.796;2023-02-01T12:28:45;100450.88;;;9.73;69.97
20368;BME280;10343;52.402;9.796;2023-02-01T12:31:31;100446.88;;;9.93;73.73
20368;BME280;10343;52.402;9.796;2023-02-01T12:34:15;100451.31;;;9.55;73.98
20368;BME280;10343;52.402;9.796;2023-02-01T12:36:51;100453.31;;;9.03;76.89
20368;BME280;10343;52.402;9.796;2023-02-01T12:39:23;100455.59;;;9.20;76.46
20368;BME280;10343;52.402;9.796;2023-02-01T12:41:56;100458.91;;;9.29;79.29
20368;BME280;10343;52.402;9.796;2023-02-01T12:44:31;100434.56;;;8.70;82.81
20368;BME280;10343;52.402;9.796;2023-02-01T12:47:05;100437.47;;;8.56;86.83
20368;BME280;10343;52.402;9.796;2023-02-01T12:49:42;100427.13;;;8.90;87.40
20368;BME280;10343;52.402;9.796;2023-02-01T12:52:17;100415.09;;;8.74;88.62
20368;BME280;10343;52.402;9.796;2023-02-01T12:54:49;100391.38;;;9.13;87.68
20368;BME280;10343;52.402;9.796;2023-02-01T12:57:23;100398.22;;;8.32;88.63
20368;BME280;10343;52.402;9.796;2023-02-01T12:59:56;100406.28;;;8.75;89.31
20368;BME280;10343;52.402;9.796;2023-02-01T13:02:35;100424.00;;;8.70;87.09
20368;BME280;10343;52.402;9.796;2023-02-01T13:05:13;100406.47;;;8.65;91.46
20368;BME280;10343;52.402;9.796;2023-02-01T13:07:49;100414.50;;;9.03;87.81
20368;BME280;10343;52.402;9.796;2023-02-01T13:10:21;100393.78;;;8.34;94.62
20368;BME280;10343;52.402;9.796;2023-02-01T13:12:54;100386.59;;;8.43;99.34
20368;BME280;10343;52.402;9.796;2023-02-01T13:15:27;100368.75;;;8.09;100.00
20368;BME280;10343;52.402;9.796;2023-02-01T13:18:00;100373.81;;;7.68;100.00
20368;BME280;10343;52.402;9.796;2023-02-01T13:20:31;100322.59;;;8.28;100.00
20368;BME280;10343;52.402;9.796;2023-02-01T13:23:04;100329.25;;;7.51;100.00
20368;BME280;10343;52.402;9.796;2023-02-01T13:25:39;100348.03;;;7.86;100.00
20368;BME280;10343;52.402;9.796;2023-02-01T13:28:14;100321.97;;;8.15;100.00
20368;BME280;10343;52.402;9.796;2023-02-01T13:31:00;100259.81;;;10.54;100.00
20368;BME280;10343;52.402;9.796;2023-02-01T13:33:46;100334.13;;;9.10;100.00